createdAt,value
2022-10-02T00:00:02.850Z,98203.20
2022-10-02T00:03:22.694Z,98216.80
2022-10-02T00:06:33.654Z,98226.00
2022-10-02T00:09:47.908Z,98231.20
2022-10-02T00:13:02.217Z,98233.40
2022-10-02T00:16:24.948Z,98239.40
2022-10-02T00:19:32.828Z,98242.20
2022-10-02T00:22:53.288Z,98249.00
2022-10-02T00:26:08.578Z,98242.60
2022-10-02T00:29:35.034Z,98238.80
2022-10-02T00:32:57.393Z,98250.60
2022-10-02T00:36:24.438Z,98252.20
2022-10-02T00:39:47.885Z,98256.00
2022-10-02T00:43:11.622Z,98260.20
2022-10-02T00:46:41.287Z,98265.20
2022-10-02T00:50:16.497Z,98272.60
2022-10-02T00:53:44.012Z,98289.60
2022-10-02T00:57:07.232Z,98289.60
2022-10-02T01:00:17.547Z,98282.00
2022-10-02T01:03:30.378Z,98288.00
2022-10-02T01:06:38.954Z,98277.00
2022-10-02T01:09:49.551Z,98280.00
2022-10-02T01:12:59.850Z,98282.60
2022-10-02T01:16:14.308Z,98291.00
2022-10-02T01:19:36.627Z,98296.00
2022-10-02T01:22:56.332Z,98295.60
2022-10-02T01:26:04.771Z,98299.40
2022-10-02T01:29:13.036Z,98299.60
2022-10-02T01:32:21.369Z,98296.00
2022-10-02T01:35:33.895Z,98305.20
2022-10-02T01:38:43.431Z,98304.20
2022-10-02T01:41:51.425Z,98304.60
2022-10-02T01:45:00.127Z,98301.40
2022-10-02T01:48:21.248Z,98310.80
2022-10-02T01:51:57.137Z,98318.00
2022-10-02T01:55:23.764Z,98320.60
2022-10-02T01:58:46.832Z,98321.20
2022-10-02T02:02:08.608Z,98326.20
2022-10-02T02:05:30.820Z,98331.00
2022-10-02T02:08:49.224Z,98334.40
2022-10-02T02:12:09.547Z,98335.00
2022-10-02T02:15:25.237Z,98335.80
2022-10-02T02:18:41.221Z,98337.80
2022-10-02T02:21:55.659Z,98343.00
2022-10-02T02:25:09.648Z,98342.60
2022-10-02T02:28:23.160Z,98348.80
2022-10-02T02:31:38.231Z,98352.60
2022-10-02T02:34:52.798Z,98353.00
2022-10-02T02:38:07.837Z,98358.60
2022-10-02T02:41:21.919Z,98354.00
2022-10-02T02:44:36.455Z,98359.40
2022-10-02T02:47:50.764Z,98366.40
2022-10-02T02:51:05.133Z,98367.40
2022-10-02T02:54:21.526Z,98367.00
2022-10-02T02:57:38.544Z,98373.60
2022-10-02T03:00:46.727Z,98379.80
2022-10-02T03:03:54.678Z,98381.80
2022-10-02T03:07:07.551Z,98385.20
2022-10-02T03:10:24.669Z,98383.40
2022-10-02T03:13:52.237Z,98390.60
2022-10-02T03:17:13.649Z,98392.80
2022-10-02T03:20:35.895Z,98392.80
2022-10-02T03:24:02.763Z,98399.00
2022-10-02T03:27:19.081Z,98403.00
2022-10-02T03:30:27.515Z,98412.20
2022-10-02T03:33:39.621Z,98416.20
2022-10-02T03:36:48.020Z,98417.40
2022-10-02T03:39:58.839Z,98414.20
2022-10-02T03:43:08.378Z,98423.60
2022-10-02T03:46:16.619Z,98431.00
2022-10-02T03:49:24.735Z,98434.40
2022-10-02T03:52:36.206Z,98437.20
2022-10-02T03:55:49.032Z,98442.60
2022-10-02T03:59:02.738Z,98446.00
2022-10-02T04:02:24.627Z,98447.80
2022-10-02T04:05:38.210Z,98449.60
2022-10-02T04:08:54.894Z,98456.00
2022-10-02T04:12:09.812Z,98456.40
2022-10-02T04:15:29.918Z,98468.20
2022-10-02T04:18:46.885Z,98471.40
2022-10-02T04:22:01.250Z,98478.20
2022-10-02T04:25:15.955Z,98483.80
2022-10-02T04:28:30.287Z,98483.20
2022-10-02T04:31:38.774Z,98484.00
2022-10-02T04:34:47.129Z,98493.20
2022-10-02T04:38:28.027Z,98492.80
2022-10-02T04:41:59.076Z,98483.20
2022-10-02T04:45:34.595Z,98491.60
2022-10-02T04:49:16.910Z,98496.00
2022-10-02T04:52:45.184Z,98508.00
2022-10-02T04:56:15.501Z,98509.00
2022-10-02T04:59:52.046Z,98513.60
2022-10-02T05:03:23.957Z,98506.00
2022-10-02T05:06:55.151Z,98512.80
2022-10-02T05:10:24.339Z,98511.00
2022-10-02T05:14:06.049Z,98515.60
2022-10-02T05:17:43.016Z,98513.20
2022-10-02T05:21:10.098Z,98513.60
2022-10-02T05:24:41.437Z,98506.80
2022-10-02T05:28:15.416Z,98515.40
2022-10-02T05:31:41.752Z,98519.00
2022-10-02T05:35:17.205Z,98518.40
2022-10-02T05:38:53.271Z,98522.20
2022-10-02T05:42:12.242Z,98523.40
2022-10-02T05:45:29.898Z,98521.00
2022-10-02T05:48:48.813Z,98524.80
2022-10-02T05:52:05.176Z,98533.00
2022-10-02T05:55:24.589Z,98542.60
2022-10-02T05:58:39.820Z,98552.60
2022-10-02T06:01:53.906Z,98561.00
2022-10-02T06:05:15.054Z,98565.40
2022-10-02T06:08:31.845Z,98565.40
2022-10-02T06:11:47.983Z,98577.60
2022-10-02T06:15:04.407Z,98583.20
2022-10-02T06:18:18.683Z,98582.00
2022-10-02T06:21:39.826Z,98584.40
2022-10-02T06:24:55.432Z,98592.00
2022-10-02T06:28:13.064Z,98592.00
2022-10-02T06:31:35.231Z,98603.40
2022-10-02T06:34:47.996Z,98599.80
2022-10-02T06:38:25.444Z,98604.80
2022-10-02T06:41:49.119Z,98614.40
2022-10-02T06:45:08.791Z,98617.40
2022-10-02T06:48:33.114Z,98624.60
2022-10-02T06:51:59.532Z,98625.60
2022-10-02T06:55:31.391Z,98633.40
2022-10-02T06:58:55.553Z,98632.80
2022-10-02T07:02:23.334Z,98640.00
2022-10-02T07:06:04.737Z,98643.20
2022-10-02T07:09:44.756Z,98647.80
2022-10-02T07:13:24.091Z,98648.00
2022-10-02T07:16:52.285Z,98650.60
2022-10-02T07:20:24.344Z,98649.20
2022-10-02T07:23:57.769Z,98659.20
2022-10-02T07:27:20.445Z,98664.40
2022-10-02T07:30:35.843Z,98668.20
2022-10-02T07:34:07.677Z,98669.60
2022-10-02T07:37:29.458Z,98674.20
2022-10-02T07:40:51.134Z,98676.00
2022-10-02T07:44:15.886Z,98675.20
2022-10-02T07:47:44.866Z,98680.20
2022-10-02T07:51:30.917Z,98688.80
2022-10-02T07:55:15.328Z,98682.20
2022-10-02T07:58:37.167Z,98686.80
2022-10-02T08:01:48.176Z,98683.60
2022-10-02T08:05:02.951Z,98683.20
2022-10-02T08:08:21.704Z,98681.80
2022-10-02T08:11:37.547Z,98686.60
2022-10-02T08:14:48.217Z,98691.40
2022-10-02T08:18:22.802Z,98692.40
2022-10-02T08:21:37.686Z,98693.80
2022-10-02T08:24:52.493Z,98695.20
2022-10-02T08:28:06.968Z,98692.40
2022-10-02T08:31:17.293Z,98696.40
2022-10-02T08:34:27.548Z,98704.00
2022-10-02T08:37:47.206Z,98709.00
2022-10-02T08:42:04.180Z,98701.80
2022-10-02T08:45:52.540Z,98707.60
2022-10-02T08:50:05.106Z,98706.80
2022-10-02T08:54:04.458Z,98709.00
2022-10-02T08:57:47.289Z,98715.00
2022-10-02T09:01:17.517Z,98720.20
2022-10-02T09:05:13.046Z,98715.60
2022-10-02T09:09:15.771Z,98714.80
2022-10-02T09:13:12.148Z,98703.60
2022-10-02T09:16:38.298Z,98718.40
2022-10-02T09:20:11.481Z,98715.40
2022-10-02T09:23:57.973Z,98710.80
2022-10-02T09:27:55.085Z,98708.40
2022-10-02T09:31:52.774Z,98698.60
2022-10-02T09:35:38.653Z,98700.40
2022-10-02T09:39:30.733Z,98697.00
2022-10-02T09:43:37.649Z,98695.40
2022-10-02T09:47:35.788Z,98705.80
2022-10-02T09:51:17.612Z,98706.00
2022-10-02T09:55:15.702Z,98710.60
2022-10-02T09:59:23.808Z,98715.80
2022-10-02T10:03:13.368Z,98695.40
2022-10-02T10:06:54.852Z,98697.00
2022-10-02T10:10:53.860Z,98699.60
2022-10-02T10:14:44.016Z,98697.60
2022-10-02T10:18:48.135Z,98695.00
2022-10-02T10:22:39.180Z,98688.80
2022-10-02T10:26:34.829Z,98684.00
2022-10-02T10:30:26.710Z,98680.00
2022-10-02T10:34:46.645Z,98688.40
2022-10-02T10:38:34.744Z,98684.60
2022-10-02T10:42:28.062Z,98687.80
2022-10-02T10:46:06.447Z,98686.20
2022-10-02T10:50:02.570Z,98681.00
2022-10-02T10:53:57.221Z,98681.20
2022-10-02T10:57:23.705Z,98665.20
2022-10-02T11:00:49.175Z,98666.60
2022-10-02T11:04:41.943Z,98675.60
2022-10-02T11:08:19.345Z,98681.00
2022-10-02T11:11:40.495Z,98682.40
2022-10-02T11:15:13.561Z,98682.40
2022-10-02T11:18:43.296Z,98686.60
2022-10-02T11:22:31.134Z,98677.60
2022-10-02T11:26:25.142Z,98674.80
2022-10-02T11:30:26.971Z,98669.00
2022-10-02T11:34:16.797Z,98665.80
2022-10-02T11:37:50.253Z,98667.60
2022-10-02T11:41:28.832Z,98665.80
2022-10-02T11:45:02.256Z,98665.80
2022-10-02T11:48:46.751Z,98658.80
2022-10-02T11:52:33.296Z,98661.40
2022-10-02T11:56:03.505Z,98672.00
2022-10-02T11:59:30.955Z,98670.20
2022-10-02T12:02:51.161Z,98671.20
2022-10-02T12:06:13.343Z,98675.60
2022-10-02T12:09:36.575Z,98680.80
2022-10-02T12:12:59.202Z,98675.80
2022-10-02T12:16:25.099Z,98670.80
2022-10-02T12:20:14.123Z,98665.80
2022-10-02T12:24:00.158Z,98662.40
2022-10-02T12:27:18.862Z,98650.40
2022-10-02T12:30:35.312Z,98650.40
2022-10-02T12:34:01.500Z,98639.20
2022-10-02T12:37:22.450Z,98635.40
2022-10-02T12:40:44.061Z,98636.60
2022-10-02T12:44:29.413Z,98635.40
2022-10-02T12:48:25.232Z,98627.20
2022-10-02T12:51:40.936Z,98630.00
2022-10-02T12:55:51.649Z,98627.60
2022-10-02T12:59:13.026Z,98617.80
2022-10-02T13:03:09.800Z,98611.20
2022-10-02T13:06:59.704Z,98604.20
2022-10-02T13:10:19.610Z,98603.80
2022-10-02T13:13:52.415Z,98595.60
2022-10-02T13:17:24.262Z,98591.00
2022-10-02T13:20:42.845Z,98587.60
2022-10-02T13:24:07.793Z,98583.60
2022-10-02T13:27:31.993Z,98593.80
2022-10-02T13:30:49.561Z,98585.80
2022-10-02T13:34:20.081Z,98588.00
2022-10-02T13:37:48.439Z,98585.20
2022-10-02T13:41:14.173Z,98584.20
2022-10-02T13:44:37.922Z,98570.80
2022-10-02T13:47:57.523Z,98573.60
2022-10-02T13:51:14.203Z,98572.40
2022-10-02T13:54:45.451Z,98581.00
2022-10-02T13:58:25.509Z,98575.60
2022-10-02T14:01:51.222Z,98570.40
2022-10-02T14:05:12.241Z,98561.40
2022-10-02T14:08:53.073Z,98568.40
2022-10-02T14:12:26.113Z,98563.80
2022-10-02T14:15:54.701Z,98566.80
2022-10-02T14:19:32.691Z,98564.40
2022-10-02T14:23:02.685Z,98562.20
2022-10-02T14:26:28.109Z,98552.40
2022-10-02T14:29:50.424Z,98553.80
2022-10-02T14:33:10.239Z,98550.80
2022-10-02T14:36:21.629Z,98546.60
2022-10-02T14:39:39.104Z,98546.20
2022-10-02T14:43:38.886Z,98541.00
2022-10-02T14:46:56.588Z,98544.20
2022-10-02T14:50:34.302Z,98538.00
2022-10-02T14:54:14.522Z,98530.80
2022-10-02T14:57:58.673Z,98518.80
2022-10-02T15:01:23.505Z,98514.80
2022-10-02T15:04:47.990Z,98520.40
2022-10-02T15:08:08.398Z,98526.40
2022-10-02T15:11:57.715Z,98516.80
2022-10-02T15:15:23.744Z,98513.20
2022-10-02T15:18:53.012Z,98510.40
2022-10-02T15:22:25.249Z,98509.00
2022-10-02T15:26:11.187Z,98503.00
2022-10-02T15:29:46.290Z,98504.40
2022-10-02T15:33:20.939Z,98496.40
2022-10-02T15:37:12.879Z,98501.20
2022-10-02T15:40:46.277Z,98497.60
2022-10-02T15:44:25.966Z,98495.80
2022-10-02T15:48:20.214Z,98489.60
2022-10-02T15:52:11.967Z,98497.80
2022-10-02T15:55:39.780Z,98492.40
2022-10-02T15:59:16.663Z,98497.60
2022-10-02T16:02:54.687Z,98491.80
2022-10-02T16:06:14.273Z,98494.00
2022-10-02T16:09:50.700Z,98491.60
2022-10-02T16:13:46.293Z,98488.20
2022-10-02T16:17:41.826Z,98479.60
2022-10-02T16:21:24.056Z,98480.20
2022-10-02T16:25:07.619Z,98485.40
2022-10-02T16:28:45.174Z,98499.40
2022-10-02T16:32:12.940Z,98501.60
2022-10-02T16:36:08.792Z,98495.40
2022-10-02T16:39:43.532Z,98489.60
2022-10-02T16:43:13.139Z,98486.00
2022-10-02T16:46:29.263Z,98485.80
2022-10-02T16:49:52.980Z,98479.60
2022-10-02T16:53:12.910Z,98481.40
2022-10-02T16:56:32.516Z,98477.40
2022-10-02T16:59:54.503Z,98465.80
2022-10-02T17:03:11.680Z,98466.60
2022-10-02T17:06:34.878Z,98467.20
2022-10-02T17:09:53.704Z,98470.60
2022-10-02T17:13:28.430Z,98468.00
2022-10-02T17:16:46.661Z,98468.40
2022-10-02T17:20:16.792Z,98474.80
2022-10-02T17:23:35.890Z,98472.60
2022-10-02T17:26:54.212Z,98470.80
2022-10-02T17:30:16.767Z,98472.40
2022-10-02T17:33:32.515Z,98474.60
2022-10-02T17:36:50.430Z,98466.80
2022-10-02T17:40:22.689Z,98476.00
2022-10-02T17:43:42.163Z,98475.60
2022-10-02T17:47:34.286Z,98477.80
2022-10-02T17:51:14.180Z,98479.20
2022-10-02T17:55:09.407Z,98482.20
2022-10-02T17:58:28.701Z,98480.40
2022-10-02T18:05:49.025Z,98473.80
2022-10-02T18:09:53.575Z,98471.40
2022-10-02T18:13:27.942Z,98476.80
2022-10-02T18:16:50.903Z,98473.40
2022-10-02T18:20:16.354Z,98464.00
2022-10-02T18:23:51.295Z,98464.80
2022-10-02T18:27:39.630Z,98480.20
2022-10-02T18:31:00.512Z,98484.20
2022-10-02T18:34:42.760Z,98488.20
2022-10-02T18:38:08.706Z,98485.40
2022-10-02T18:41:44.341Z,98488.60
2022-10-02T18:45:10.418Z,98494.80
2022-10-02T18:48:49.179Z,98487.80
2022-10-02T18:52:47.366Z,98486.80
2022-10-02T18:56:07.791Z,98477.60
2022-10-02T18:59:35.668Z,98465.40
2022-10-02T19:03:15.877Z,98463.40
2022-10-02T19:06:44.182Z,98473.40
2022-10-02T19:10:40.536Z,98473.20
2022-10-02T19:13:53.595Z,98483.80
2022-10-02T19:17:05.492Z,98481.80
2022-10-02T19:20:44.575Z,98481.00
2022-10-02T19:24:00.530Z,98481.20
2022-10-02T19:27:26.546Z,98484.00
2022-10-02T19:30:47.866Z,98485.80
2022-10-02T19:34:03.642Z,98470.20
2022-10-02T19:37:17.567Z,98466.20
2022-10-02T19:40:33.630Z,98456.20
2022-10-02T19:43:54.875Z,98454.80
2022-10-02T19:47:13.241Z,98452.60
2022-10-02T19:50:35.264Z,98446.60
2022-10-02T19:53:50.818Z,98441.00
2022-10-02T19:57:16.651Z,98443.60
2022-10-02T20:00:25.605Z,98444.40
2022-10-02T20:03:36.188Z,98439.20
2022-10-02T20:06:49.993Z,98437.20
2022-10-02T20:10:03.353Z,98423.40
2022-10-02T20:13:25.055Z,98427.80
2022-10-02T20:16:54.580Z,98429.20
2022-10-02T20:20:16.841Z,98427.00
2022-10-02T20:23:31.508Z,98435.40
2022-10-02T20:26:44.331Z,98432.20
2022-10-02T20:30:01.848Z,98432.60
2022-10-02T20:33:19.410Z,98432.60
2022-10-02T20:36:33.743Z,98428.00
2022-10-02T20:39:47.450Z,98423.20
2022-10-02T20:43:02.522Z,98413.40
2022-10-02T20:46:42.238Z,98409.00
2022-10-02T20:50:36.499Z,98405.80
2022-10-02T20:54:36.351Z,98397.60
2022-10-02T20:58:07.783Z,98415.40
2022-10-02T21:01:43.493Z,98419.40
2022-10-02T21:05:33.925Z,98423.80
2022-10-02T21:09:16.133Z,98422.40
2022-10-02T21:12:47.857Z,98423.80
2022-10-02T21:16:34.281Z,98420.60
2022-10-02T21:20:49.587Z,98418.60
2022-10-02T21:24:51.711Z,98419.20
2022-10-02T21:29:05.477Z,98419.80
2022-10-02T21:32:39.310Z,98413.40
2022-10-02T21:35:56.957Z,98410.80
2022-10-02T21:39:51.600Z,98409.80
2022-10-02T21:43:48.947Z,98421.40
2022-10-02T21:47:47.865Z,98412.20
2022-10-02T21:51:46.484Z,98413.20
2022-10-02T21:55:43.157Z,98411.80
2022-10-02T21:59:36.425Z,98408.20
2022-10-02T22:03:22.571Z,98407.60
2022-10-02T22:06:51.164Z,98408.40
2022-10-02T22:10:12.814Z,98404.20
2022-10-02T22:13:34.056Z,98405.80
2022-10-02T22:16:57.744Z,98403.60
2022-10-02T22:20:44.996Z,98406.00
2022-10-02T22:24:44.562Z,98412.00
2022-10-02T22:28:11.489Z,98409.40
2022-10-02T22:32:39.879Z,98397.60
2022-10-02T22:36:35.419Z,98390.60
2022-10-02T22:39:58.421Z,98391.80
2022-10-02T22:43:19.566Z,98375.80
2022-10-02T22:46:47.425Z,98380.40
2022-10-02T22:50:10.375Z,98381.40
2022-10-02T22:53:33.628Z,98375.60
2022-10-02T22:56:51.799Z,98386.40
2022-10-02T23:00:13.429Z,98387.40
2022-10-02T23:03:31.645Z,98391.80
2022-10-02T23:06:50.627Z,98388.40
2022-10-02T23:10:06.318Z,98387.40
2022-10-02T23:13:27.635Z,98386.80
2022-10-02T23:16:45.567Z,98388.60
2022-10-02T23:20:03.264Z,98390.60
2022-10-02T23:23:24.659Z,98386.60
2022-10-02T23:26:41.913Z,98387.20
2022-10-02T23:30:00.736Z,98394.20
2022-10-02T23:33:22.361Z,98389.40
2022-10-02T23:36:45.826Z,98384.80
2022-10-02T23:40:05.058Z,98379.40
2022-10-02T23:43:21.367Z,98380.80
2022-10-02T23:46:36.578Z,98385.20
2022-10-02T23:49:50.145Z,98377.00
2022-10-02T23:53:35.331Z,98374.80
2022-10-02T23:57:29.698Z,98371.60
